N3232X KGBD-KBEC
Flight info
| Callsign | N3232X |
|---|---|
| Flight time | 0h 34m |
| Altitude | 6000 |
| Route | SPELT V132 HUT V73 ZIMEX |
| Aircraft | KODI/L-SBDGRY/S |
Departure
| Time | 2026-05-03 20:34 |
|---|---|
| Airport | Great Bend Municipal Airport (KGBD) |
Arrival
| Time | 2026-05-03 21:09 |
|---|---|
| Airport | Beech Factory Airport (KBEC) |
| Time | Latitude | Longitude | Altitude | Speed | Heading |
|---|---|---|---|---|---|
| 2026-05-03 20:24 | 38.34367 | -98.85525 | 1888 ft | 0 kts | 91° |
| 2026-05-03 20:29 | 38.34366 | -98.85521 | 1888 ft | 4 kts | 117° |
| 2026-05-03 20:29 | 38.34271 | -98.85514 | 1883 ft | 19 kts | 182° |
| 2026-05-03 20:29 | 38.34122 | -98.85534 | 1889 ft | 23 kts | 182° |
| 2026-05-03 20:29 | 38.33997 | -98.85534 | 1889 ft | 20 kts | 178° |
| 2026-05-03 20:30 | 38.33833 | -98.85536 | 1889 ft | 26 kts | 179° |
| 2026-05-03 20:30 | 38.33707 | -98.85528 | 1889 ft | 5 kts | 194° |
| 2026-05-03 20:30 | 38.33706 | -98.85529 | 1889 ft | 0 kts | 194° |
| 2026-05-03 20:32 | 38.33658 | -98.85546 | 1883 ft | 9 kts | 240° |
| 2026-05-03 20:33 | 38.33661 | -98.85589 | 1889 ft | 0 kts | 302° |
| 2026-05-03 20:33 | 38.33677 | -98.85632 | 1887 ft | 27 kts | 287° |
| 2026-05-03 20:33 | 38.33898 | -98.86122 | 1968 ft | 88 kts | 301° |
| 2026-05-03 20:33 | 38.34318 | -98.86764 | 2316 ft | 99 kts | 302° |
| 2026-05-03 20:34 | 38.34909 | -98.87629 | 2012 ft | 158 kts | 308° |
| 2026-05-03 20:34 | 38.35674 | -98.88723 | 2077 ft | 159 kts | 306° |
| 2026-05-03 20:34 | 38.36374 | -98.89712 | 2642 ft | 142 kts | 304° |
| 2026-05-03 20:34 | 38.37121 | -98.90435 | 3379 ft | 133 kts | 333° |
| 2026-05-03 20:35 | 38.37988 | -98.90520 | 4224 ft | 118 kts | 4° |
| 2026-05-03 20:35 | 38.38709 | -98.90139 | 4913 ft | 113 kts | 36° |
| 2026-05-03 20:35 | 38.39170 | -98.89441 | 5403 ft | 112 kts | 69° |
| 2026-05-03 20:35 | 38.39353 | -98.88515 | 5932 ft | 107 kts | 103° |
| 2026-05-03 20:36 | 38.39110 | -98.87484 | 6018 ft | 141 kts | 135° |
| 2026-05-03 20:36 | 38.38491 | -98.86354 | 5980 ft | 166 kts | 133° |
| 2026-05-03 20:36 | 38.37873 | -98.85054 | 5990 ft | 177 kts | 129° |
| 2026-05-03 20:36 | 38.37255 | -98.83646 | 5995 ft | 187 kts | 126° |
| 2026-05-03 20:37 | 38.36665 | -98.82145 | 5995 ft | 191 kts | 121° |
| 2026-05-03 20:37 | 38.36118 | -98.80604 | 6000 ft | 193 kts | 120° |
| 2026-05-03 20:37 | 38.35521 | -98.79079 | 6003 ft | 192 kts | 124° |
| 2026-05-03 20:37 | 38.34860 | -98.77564 | 6004 ft | 193 kts | 125° |
| 2026-05-03 20:38 | 38.34218 | -98.76087 | 6010 ft | 194 kts | 125° |
| 2026-05-03 20:38 | 38.33559 | -98.74565 | 6007 ft | 196 kts | 125° |
| 2026-05-03 20:38 | 38.32902 | -98.73048 | 6004 ft | 196 kts | 125° |
| 2026-05-03 20:38 | 38.32244 | -98.71524 | 5988 ft | 196 kts | 126° |
| 2026-05-03 20:39 | 38.31585 | -98.70009 | 5986 ft | 196 kts | 126° |
| 2026-05-03 20:39 | 38.30927 | -98.68489 | 5990 ft | 196 kts | 126° |
| 2026-05-03 20:39 | 38.30270 | -98.66970 | 5987 ft | 196 kts | 126° |
| 2026-05-03 20:39 | 38.29606 | -98.65443 | 5982 ft | 197 kts | 126° |
| 2026-05-03 20:40 | 38.28952 | -98.63941 | 5983 ft | 197 kts | 126° |
| 2026-05-03 20:40 | 38.28290 | -98.62413 | 5979 ft | 197 kts | 126° |
| 2026-05-03 20:40 | 38.27625 | -98.60883 | 5974 ft | 197 kts | 126° |
| 2026-05-03 20:40 | 38.27088 | -98.59272 | 5978 ft | 202 kts | 113° |
| 2026-05-03 20:41 | 38.26704 | -98.57543 | 5974 ft | 202 kts | 111° |
| 2026-05-03 20:41 | 38.26311 | -98.55831 | 5970 ft | 201 kts | 113° |
| 2026-05-03 20:41 | 38.25894 | -98.54137 | 5970 ft | 200 kts | 113° |
| 2026-05-03 20:41 | 38.25478 | -98.52437 | 5965 ft | 202 kts | 113° |
| 2026-05-03 20:42 | 38.25067 | -98.50729 | 5970 ft | 202 kts | 112° |
| 2026-05-03 20:42 | 38.24654 | -98.49019 | 5963 ft | 203 kts | 112° |
| 2026-05-03 20:42 | 38.24237 | -98.47299 | 5959 ft | 203 kts | 112° |
| 2026-05-03 20:42 | 38.23832 | -98.45614 | 5956 ft | 202 kts | 112° |
| 2026-05-03 20:43 | 38.23415 | -98.43911 | 5947 ft | 201 kts | 113° |
| 2026-05-03 20:43 | 38.23002 | -98.42207 | 5974 ft | 202 kts | 112° |
| 2026-05-03 20:43 | 38.22588 | -98.40501 | 5994 ft | 202 kts | 113° |
| 2026-05-03 20:43 | 38.22168 | -98.38782 | 5994 ft | 203 kts | 114° |
| 2026-05-03 20:44 | 38.21754 | -98.37073 | 6001 ft | 202 kts | 113° |
| 2026-05-03 20:44 | 38.21338 | -98.35369 | 5996 ft | 201 kts | 114° |
| 2026-05-03 20:44 | 38.20923 | -98.33677 | 5994 ft | 201 kts | 112° |
| 2026-05-03 20:44 | 38.20516 | -98.31978 | 6001 ft | 201 kts | 112° |
| 2026-05-03 20:45 | 38.20100 | -98.30284 | 5997 ft | 202 kts | 113° |
| 2026-05-03 20:45 | 38.19685 | -98.28587 | 5993 ft | 200 kts | 113° |
| 2026-05-03 20:45 | 38.19273 | -98.26901 | 5994 ft | 200 kts | 113° |
| 2026-05-03 20:45 | 38.18860 | -98.25207 | 5999 ft | 201 kts | 113° |
| 2026-05-03 20:46 | 38.18442 | -98.23503 | 6002 ft | 202 kts | 114° |
| 2026-05-03 20:46 | 38.18022 | -98.21795 | 6001 ft | 203 kts | 114° |
| 2026-05-03 20:46 | 38.17601 | -98.20078 | 6002 ft | 203 kts | 113° |
| 2026-05-03 20:46 | 38.17185 | -98.18368 | 5999 ft | 202 kts | 113° |
| 2026-05-03 20:47 | 38.16764 | -98.16652 | 6007 ft | 204 kts | 113° |
| 2026-05-03 20:47 | 38.16335 | -98.14928 | 6001 ft | 205 kts | 114° |
| 2026-05-03 20:47 | 38.15916 | -98.13206 | 5995 ft | 202 kts | 113° |
| 2026-05-03 20:47 | 38.15503 | -98.11510 | 5991 ft | 200 kts | 113° |
| 2026-05-03 20:48 | 38.15085 | -98.09817 | 6011 ft | 201 kts | 113° |
| 2026-05-03 20:48 | 38.14664 | -98.08117 | 6018 ft | 203 kts | 113° |
| 2026-05-03 20:48 | 38.14242 | -98.06402 | 6016 ft | 204 kts | 113° |
| 2026-05-03 20:48 | 38.13825 | -98.04708 | 6026 ft | 204 kts | 113° |
| 2026-05-03 20:49 | 38.13403 | -98.03003 | 6025 ft | 202 kts | 113° |
| 2026-05-03 20:49 | 38.12982 | -98.01288 | 6026 ft | 203 kts | 113° |
| 2026-05-03 20:49 | 38.12559 | -97.99579 | 6029 ft | 203 kts | 113° |
| 2026-05-03 20:49 | 38.12136 | -97.97862 | 6032 ft | 203 kts | 113° |
| 2026-05-03 20:50 | 38.11711 | -97.96148 | 6036 ft | 202 kts | 113° |
| 2026-05-03 20:50 | 38.11289 | -97.94446 | 6033 ft | 203 kts | 113° |
| 2026-05-03 20:50 | 38.10864 | -97.92729 | 6042 ft | 204 kts | 113° |
| 2026-05-03 20:50 | 38.10444 | -97.91036 | 6036 ft | 203 kts | 113° |
| 2026-05-03 20:51 | 38.10021 | -97.89328 | 6029 ft | 202 kts | 114° |
| 2026-05-03 20:51 | 38.09599 | -97.87632 | 6040 ft | 202 kts | 114° |
| 2026-05-03 20:51 | 38.09173 | -97.85925 | 6036 ft | 203 kts | 113° |
| 2026-05-03 20:51 | 38.08750 | -97.84214 | 6038 ft | 203 kts | 113° |
| 2026-05-03 20:52 | 38.08325 | -97.82495 | 6035 ft | 204 kts | 113° |
| 2026-05-03 20:52 | 38.07893 | -97.80770 | 6040 ft | 206 kts | 113° |
| 2026-05-03 20:52 | 38.07467 | -97.79062 | 6033 ft | 205 kts | 113° |
| 2026-05-03 20:52 | 38.07037 | -97.77328 | 6031 ft | 204 kts | 113° |
| 2026-05-03 20:53 | 38.06607 | -97.75593 | 6040 ft | 205 kts | 113° |
| 2026-05-03 20:53 | 38.06175 | -97.73877 | 6031 ft | 204 kts | 113° |
| 2026-05-03 20:53 | 38.05749 | -97.72181 | 6033 ft | 205 kts | 113° |
| 2026-05-03 20:53 | 38.05316 | -97.70455 | 6027 ft | 205 kts | 113° |
| 2026-05-03 20:54 | 38.04891 | -97.68739 | 6026 ft | 203 kts | 113° |
| 2026-05-03 20:54 | 38.04037 | -97.65334 | 6025 ft | 202 kts | 113° |
| 2026-05-03 20:54 | 38.03609 | -97.63629 | 6014 ft | 202 kts | 113° |
| 2026-05-03 20:55 | 38.03183 | -97.61925 | 6020 ft | 204 kts | 113° |
| 2026-05-03 20:55 | 38.02749 | -97.60201 | 6016 ft | 204 kts | 113° |
| 2026-05-03 20:55 | 38.02319 | -97.58492 | 6018 ft | 204 kts | 113° |
| 2026-05-03 20:55 | 38.01888 | -97.56775 | 6006 ft | 204 kts | 113° |
| 2026-05-03 20:56 | 38.01461 | -97.55076 | 6010 ft | 205 kts | 112° |
| 2026-05-03 20:56 | 38.01024 | -97.53346 | 6000 ft | 205 kts | 113° |
| 2026-05-03 20:56 | 38.00592 | -97.51623 | 5997 ft | 204 kts | 113° |
| 2026-05-03 20:56 | 38.00156 | -97.49911 | 6026 ft | 203 kts | 114° |
| 2026-05-03 20:57 | 37.99733 | -97.48221 | 6034 ft | 198 kts | 113° |
| 2026-05-03 20:57 | 37.99320 | -97.46566 | 6033 ft | 196 kts | 114° |
| 2026-05-03 20:57 | 37.98908 | -97.44932 | 5920 ft | 198 kts | 114° |
| 2026-05-03 20:57 | 37.98485 | -97.43269 | 5673 ft | 196 kts | 114° |
| 2026-05-03 20:58 | 37.98075 | -97.41653 | 5420 ft | 191 kts | 113° |
| 2026-05-03 20:58 | 37.97673 | -97.40058 | 5174 ft | 190 kts | 114° |
| 2026-05-03 20:58 | 37.97266 | -97.38452 | 4920 ft | 190 kts | 114° |
| 2026-05-03 20:58 | 37.96866 | -97.36868 | 4626 ft | 187 kts | 114° |
| 2026-05-03 20:59 | 37.96474 | -97.35322 | 4386 ft | 182 kts | 114° |
| 2026-05-03 20:59 | 37.96094 | -97.33817 | 4151 ft | 176 kts | 115° |
| 2026-05-03 20:59 | 37.95659 | -97.32408 | 4018 ft | 162 kts | 129° |
| 2026-05-03 20:59 | 37.95111 | -97.31215 | 4015 ft | 154 kts | 128° |
| 2026-05-03 21:00 | 37.94601 | -97.30060 | 4011 ft | 149 kts | 129° |
| 2026-05-03 21:00 | 37.94432 | -97.29679 | 4016 ft | 147 kts | 129° |
| 2026-05-03 21:00 | 37.93598 | -97.27812 | 4021 ft | 146 kts | 129° |
| 2026-05-03 21:00 | 37.93097 | -97.26693 | 4021 ft | 146 kts | 130° |
| 2026-05-03 21:01 | 37.92596 | -97.25577 | 4024 ft | 144 kts | 129° |
| 2026-05-03 21:01 | 37.92108 | -97.24482 | 4024 ft | 141 kts | 128° |
| 2026-05-03 21:01 | 37.91625 | -97.23406 | 4014 ft | 144 kts | 129° |
| 2026-05-03 21:01 | 37.91112 | -97.22272 | 3932 ft | 151 kts | 129° |
| 2026-05-03 21:02 | 37.90584 | -97.21102 | 3746 ft | 155 kts | 128° |
| 2026-05-03 21:02 | 37.90040 | -97.19897 | 3524 ft | 159 kts | 128° |
| 2026-05-03 21:02 | 37.89485 | -97.18667 | 3320 ft | 162 kts | 131° |
| 2026-05-03 21:02 | 37.88733 | -97.17683 | 3099 ft | 154 kts | 155° |
| 2026-05-03 21:03 | 37.87810 | -97.17141 | 3012 ft | 139 kts | 173° |
| 2026-05-03 21:03 | 37.86904 | -97.17015 | 3016 ft | 127 kts | 188° |
| 2026-05-03 21:03 | 37.86054 | -97.17196 | 3011 ft | 121 kts | 198° |
| 2026-05-03 21:03 | 37.85253 | -97.17403 | 3012 ft | 114 kts | 195° |
| 2026-05-03 21:04 | 37.84495 | -97.17603 | 3025 ft | 108 kts | 196° |
| 2026-05-03 21:04 | 37.83757 | -97.17794 | 3025 ft | 110 kts | 196° |
| 2026-05-03 21:04 | 37.83003 | -97.17987 | 3019 ft | 109 kts | 195° |
| 2026-05-03 21:04 | 37.82295 | -97.18165 | 3021 ft | 100 kts | 194° |
| 2026-05-03 21:05 | 37.81631 | -97.18334 | 3025 ft | 98 kts | 195° |
| 2026-05-03 21:05 | 37.80943 | -97.18508 | 3026 ft | 103 kts | 197° |
| 2026-05-03 21:05 | 37.80218 | -97.18704 | 3007 ft | 103 kts | 195° |
| 2026-05-03 21:05 | 37.79522 | -97.18878 | 3021 ft | 104 kts | 193° |
| 2026-05-03 21:06 | 37.78818 | -97.19059 | 3013 ft | 101 kts | 197° |
| 2026-05-03 21:06 | 37.78120 | -97.19243 | 2927 ft | 104 kts | 196° |
| 2026-05-03 21:06 | 37.77390 | -97.19431 | 2795 ft | 111 kts | 196° |
| 2026-05-03 21:06 | 37.76607 | -97.19637 | 2486 ft | 118 kts | 193° |
| 2026-05-03 21:07 | 37.75780 | -97.19823 | 2109 ft | 128 kts | 194° |
| 2026-05-03 21:07 | 37.74889 | -97.20062 | 1936 ft | 128 kts | 197° |
| 2026-05-03 21:07 | 37.74068 | -97.20294 | 1935 ft | 113 kts | 194° |
| 2026-05-03 21:07 | 37.73327 | -97.20463 | 1926 ft | 104 kts | 196° |
| 2026-05-03 21:08 | 37.72654 | -97.20635 | 1931 ft | 97 kts | 198° |
| 2026-05-03 21:08 | 37.72009 | -97.20817 | 1927 ft | 93 kts | 197° |
| 2026-05-03 21:08 | 37.71404 | -97.20969 | 1908 ft | 76 kts | 200° |
| 2026-05-03 21:08 | 37.70930 | -97.21085 | 1767 ft | 66 kts | 199° |
| 2026-05-03 21:09 | 37.70505 | -97.21195 | 1566 ft | 59 kts | 200° |
| 2026-05-03 21:09 | 37.70141 | -97.21303 | 1407 ft | 47 kts | 198° |
| 2026-05-03 21:09 | 37.69907 | -97.21361 | 1401 ft | 32 kts | 188° |
| 2026-05-03 21:09 | 37.69747 | -97.21409 | 1402 ft | 15 kts | 187° |
| 2026-05-03 21:10 | 37.69629 | -97.21435 | 1403 ft | 19 kts | 193° |
| 2026-05-03 21:10 | 37.69500 | -97.21471 | 1403 ft | 14 kts | 187° |
| 2026-05-03 21:10 | 37.69432 | -97.21507 | 1405 ft | 8 kts | 255° |
| 2026-05-03 21:10 | 37.69430 | -97.21555 | 1403 ft | 0 kts | 277° |
| 2026-05-03 21:11 | 37.69432 | -97.21596 | 1403 ft | 10 kts | 258° |
| 2026-05-03 21:11 | 37.69385 | -97.21689 | 1400 ft | 17 kts | 281° |
| 2026-05-03 21:11 | 37.69384 | -97.21848 | 1395 ft | 18 kts | 266° |
| 2026-05-03 21:11 | 37.69423 | -97.21920 | 1389 ft | 13 kts | 74° |
| 2026-05-03 21:12 | 37.69426 | -97.21853 | 1402 ft | 0 kts | 100° |